METAR Data
IDs: Format: Raw Decoded Include TAF

Data at: 0823 UTC 07 Dec 2021

KJAX 070756Z 22007KT 10SM BKN200 18/17 A3001 RMK AO2 SLP163 T01780167
KJAX 070656Z 21005KT 10SM BKN250 17/16 A3002 RMK AO2 SLP166 T01670156
KJAX 070556Z 26005KT 10SM FEW041 BKN210 BKN250 16/15 A3003 RMK AO2 SLP170 T01610150 10200 20156 58013
KJAX 070456Z 27006KT 10SM SCT042 BKN220 17/15 A3006 RMK AO2 SLP179 T01670150 402670100
KJAX 070356Z 26007KT 10SM FEW180 BKN220 17/15 A3007 RMK AO2 SLP183 T01720150
KJAX 070256Z 23006KT 10SM BKN240 18/16 A3007 RMK AO2 SLP183 T01830156 50012
KJAX 070156Z 26007KT 10SM SCT180 BKN250 18/15 A3007 RMK AO2 SLP183 T01780150
KJAX 070056Z 22006KT 10SM SCT180 OVC250 19/16 A3004 RMK AO2 SLP174 T01940156
KJAX 062356Z 17006KT 10SM SCT180 OVC250 18/16 A3004 RMK AO2 SLP172 T01780161 10267 20178 50003
KJAX 062256Z 00000KT 10SM FEW040 BKN200 OVC250 21/16 A3004 RMK AO2 SLP172 T02060161
KJAX 062156Z 27004KT 10SM FEW040 SCT150 BKN220 23/16 A3004 RMK AO2 SLP171 T02330161
KJAX 062056Z 25009KT 10SM FEW041 SCT150 BKN250 24/16 A3003 RMK AO2 SLP168 T02440161 55007
KJAX 061956Z 26008KT 10SM FEW041 SCT150 BKN250 24/16 A3002 RMK AO2 SLP167 T02440156
KJAX 061856Z 26010KT 10SM SCT044 SCT150 BKN250 26/17 A3004 RMK AO2 SLP171 T02560167
KJAX 061756Z 23012KT 10SM BKN040 BKN150 BKN250 26/16 A3005 RMK AO2 SLP176 60000 T02560161 10256 20100 58027
KJAX 061656Z 23010KT 10SM SCT029 SCT150 BKN250 24/17 A3007 RMK AO2 SLP183 T02440172
KJAX 061556Z 21008KT 10SM FEW020 FEW040 FEW150 BKN250 23/18 A3011 RMK AO2 SLP198 T02330178
KJAX 061456Z 19007KT 10SM FEW150 BKN250 20/17 A3013 RMK AO2 SLP203 60000 T02000172 53001
KJAX 061356Z 00000KT 4SM BR FEW002 FEW150 BKN250 13/13 A3012 RMK AO2 RAB00E06 SLP201 P0000 T01330133
KJAX 061346Z 00000KT 3SM BR FEW002 FEW150 BKN250 12/12 A3012 RMK AO2 RAB00E06 P0000 T01220122
KJAX 061338Z 00000KT 2SM BR FEW002 BKN250 12/12 A3013 RMK AO2 RAB00E06 P0000 T01170117
KJAX 061332Z 00000KT 1SM R08/P6000FT BR FEW002 BKN250 12/12 A3013 RMK AO2 RAB00E06 P0000 T01170117
KJAX 061256Z 00000KT 1/2SM R08/2000V3500FT FG SCT002 BKN250 11/11 A3013 RMK AO2 SLP202 T01060106 $
KJAX 061252Z 00000KT 1/2SM R08/1600V3500FT FG SCT002 BKN250 11/11 A3013 RMK AO2 $
KJAX 061220Z 00000KT 1/4SM R08/1000V1800FT FG BKN002 BKN250 10/10 A3012 RMK AO2 T01000100 $
KJAX 061156Z 00000KT 1/2SM R08/1600VP6000FT FG BKN002 BKN250 10/10 A3012 RMK AO2 SLP199 T01000100 10122 20100 53007 $
KJAX 061147Z 00000KT 1/4SM R08/1400V3000FT FG BKN002 10/10 A3012 RMK AO2 T01000100 $
KJAX 061111Z 00000KT 1/2SM R08/1600V2200FT FG VV002 10/10 A3011 RMK AO2 T01000100 $
KJAX 061056Z 29003KT 3/4SM R08/1800V3500FT BR OVC002 10/10 A3011 RMK AO2 SLP196 T01000100 $
KJAX 060956Z 00000KT 1/2SM R08/2600VP6000FT FG OVC002 10/10 A3010 RMK AO2 SLP192 T01000100 $
KJAX 060953Z 00000KT 1/2SM R08/1400VP6000FT FG OVC002 10/10 A3010 RMK AO2 $
KJAX 060944Z 00000KT 1/2SM R08/1200V1400FT FG VV002 10/10 A3010 RMK AO2 T01000100 $
KJAX 060938Z 00000KT 1/4SM R08/1200V1800FT FG VV002 11/11 A3010 RMK AO2 T01060106 $
KJAX 060914Z 00000KT 1/4SM R08/1400V2600FT FG VV002 11/11 A3011 RMK AO2 T01060106 $
KJAX 060856Z 00000KT 1/4SM R08/1600V1800FT FG VV002 11/11 A3011 RMK AO2 SLP198 T01060106 55001 $
KJAX 060814Z 00000KT 1/4SM R08/1400V1800FT FG VV002 11/11 A3012 RMK AO2 T01110111 $
KJAX 060756Z 00000KT 1/4SM R08/1800V2600FT FG VV002 11/11 A3011 RMK AO2 SLP197 T01110111 $
KJAX 060752Z 00000KT 1/4SM R08/1800V2600FT FG VV002 11/11 A3011 RMK AO2 $
KJAX 060656Z 00000KT 1/4SM R08/1400V1600FT FG VV001 11/11 A3012 RMK AO2 SLP199 T01110111 $
KJAX 060653Z 00000KT 1/4SM R08/1400V1600FT FG VV001 11/11 A3012 RMK AO2 $
KJAX 060636Z 00000KT 1/4SM R08/1800V2400FT FG VV001 12/12 A3012 RMK AO2 T01170117 $
KJAX 060556Z 00000KT 1/4SM R08/1000V1200FT FG VV001 12/12 A3013 RMK AO2 SLP203 60000 T01220122 10156 20117 58008 $
KJAX 060456Z 00000KT 1/4SM R08/0800V1400FT FG VV001 12/12 A3015 RMK AO2 RAB12E23 SLP209 P0000 T01170117 402390072 $
KJAX 060451Z 00000KT 1/4SM R08/1000V1600FT FG VV001 12/12 A3015 RMK AO2 RAB12E23 P0000 $
KJAX 060410Z 00000KT 1/8SM R08/0800V1400FT FG VV001 12/12 A3016 RMK AO2 T01220122 $
KJAX 060356Z 00000KT 1/8SM R08/1200VP6000FT FG VV001 12/12 A3016 RMK AO2 SLP214 T01220122 $
KJAX 060344Z 00000KT 1/2SM R08/P6000FT FG BKN001 12/12 A3016 RMK AO2 T01220122 $
KJAX 060336Z 00000KT 1SM R08/3000VP6000FT BR BKN001 12/12 A3016 RMK AO2 T01220122
KJAX 060319Z 00000KT 1/2SM R08/P6000FT FG BKN001 13/12 A3016 RMK AO2 T01280122
KJAX 060307Z 00000KT 2SM BR SCT001 12/12 A3016 RMK AO2 VIS E 1 T01220122
KJAX 060256Z 00000KT 3SM BR SCT001 12/12 A3015 RMK AO2 SLP211 VIS E 1 T01220122 51006
KJAX 060214Z 00000KT 3SM BR FEW002 13/13 A3015 RMK AO2 T01330128
KJAX 060156Z 01003KT 3SM BR CLR 13/13 A3015 RMK AO2 SLP209 T01330133
KJAX 060056Z 00000KT 5SM BR CLR 14/13 A3014 RMK AO2 SLP207 T01390133
KJAX 052356Z 00000KT 9SM FEW200 15/14 A3013 RMK AO2 SLP205 T01500144 10239 20150 53011
KJAX 052256Z 07006KT 10SM FEW041 FEW200 17/14 A3012 RMK AO2 SLP201 T01670144
KJAX 052156Z 07007KT 10SM FEW041 SCT200 20/16 A3011 RMK AO2 SLP196 T02000156
KJAX 052056Z 00000KT 10SM SCT041 SCT200 23/14 A3010 RMK AO2 SLP194 T02280139 56013